KVPS/VPS METAR and TAF weather

Enter ICAO airport designator
Station Type Date Time Source
KVPS METAR 2020/11/27 03:41 UTC NOAA

KVPS 270341Z AUTO 00000KT 10SM SCT010 SCT017 BKN021 OVC150 20/20 A3009 RMK AO2 CIG 010V023 SLP196 $


Station Type Date Time Source
KVPS Decoded METAR 2020/11/27 03:41 UTC NOAA

Valparaiso / Eglin Air Force Base, FL, United States (KVPS) 30-29N 086-31W 29M
Nov 26, 2020 - 10:41 PM EST / 2020.11.27 0341 UTC
Wind: Calm:0
Visibility: 10 mile(s):0
Sky conditions: overcast
Temperature: 68 F (20 C)
Dew Point: 68 F (20 C)
Relative Humidity: 100%
Pressure (altimeter): 30.09 in. Hg (1018 hPa)
ob: KVPS 270341Z AUTO 00000KT 10SM SCT010 SCT017 BKN021 OVC150 20/20 A3009 RMK AO2 CIG 010V023 SLP196
cycle: 3

Station Type Date Time Source
KVPS TAF 2020/11/27 02:59 UTC NOAA

TAF KVPS 270200Z 2702/2808 09003KT 9999 BKN014 BKN050 BKN190 QNH3008INS
BECMG 2703/2704 16003KT 4800 BR SCT003 BKN010 QNH3010INS
BECMG 2709/2710 VRB06KT 8000 -SHRA SCT003 BKN010 BKN085 QNH3010INS
BECMG 2714/2715 11006KT 9999 NSW FEW003 BKN015 BKN070 QNH3015INS
BECMG 2716/2717 20009KT 9999 SCT015 BKN070 QNH3010INS
BECMG 2803/2804 22006KT 9999 VCSH BKN003 BKN015 QNH3009INS TX26/2720Z TN17/2711Z

Example: see airport list